Latest Weather Observations for Georgetown Airport

IDQ60801

Issued at 12:02 pm EST Friday 24 March 2017 (issued every 30 minutes, with the page automatically refreshed every 10 minutes)

About weather observations | Map of weather stations | Latest weather observations for QLD | Other Formats
Station Details ID: 030124 Name: GEORGETOWN AIRPORT Lat: -18.30 Lon: 143.53 Height: 301.77 m
Data from the previous 72 hours. | See also: Recent months at Georgetown Airport
Date/Time
EST
Temp
°C
App
Temp
°C
Dew
Point
°C
Rel
Hum
%
Delta-T
°C
Wind Press
QNH
hPa
Press
MSL
hPa
Rain since
9am
mm
Dir  Spd
km/h
Gust
km/h
Spd
kts
Gust
kts
24/12:00pm 30.5 34.3 22.4 62 5.6 ESE 6 9 3 5 1010.4 1008.4 0.0
24/11:30am 30.0 32.9 21.7 61 5.7 E 9 13 5 7 1011.0 - 0.0
24/11:00am 30.2 33.7 22.1 62 5.5 NNE 7 13 4 7 1011.2 - 0.0
24/10:30am 29.4 33.0 22.4 66 4.8 E 7 11 4 6 1011.6 - 0.0
24/10:00am 28.9 32.2 22.6 69 4.3 NE 9 15 5 8 1011.8 - 0.0
24/09:30am 28.0 31.7 22.2 70 4.0 E 6 9 3 5 1011.9 - 0.0
24/09:00am 27.1 31.4 22.7 77 3.0 NW 4 9 2 5 1011.8 1009.8 6.6
24/08:30am 26.4 31.2 22.9 81 2.4 WSW 2 7 1 4 1011.9 - 6.6
24/08:00am 25.1 29.3 23.2 89 1.3 SSW 6 7 3 4 1011.6 - 6.6
24/07:30am 24.3 29.0 23.3 94 0.7 SW 4 7 2 4 1011.3 - 6.6
24/07:00am 23.9 28.4 23.0 95 0.6 S 4 7 2 4 1010.7 - 6.6
24/06:30am 23.8 28.1 22.6 93 0.8 W 4 6 2 3 1010.5 - 6.6
24/06:00am 24.4 28.3 22.5 89 1.3 NE 6 7 3 4 1010.2 1008.2 6.6
24/05:30am 24.4 28.0 23.0 92 1.0 N 9 13 5 7 1009.8 - 6.6
24/05:00am 23.8 28.7 23.1 96 0.5 NNE 2 9 1 5 1009.7 - 6.6
24/04:30am 23.9 29.2 23.0 95 0.6 CALM 0 0 0 0 1009.6 - 6.6
24/04:00am 23.9 29.1 22.9 94 0.7 CALM 0 0 0 0 1009.9 - 6.6
24/03:30am 24.1 28.1 22.7 92 1.0 E 6 9 3 5 1009.6 - 6.6
24/03:00am 24.3 29.5 22.9 92 1.0 CALM 0 6 0 3 1009.9 1007.9 6.6
24/02:30am 24.5 28.3 22.7 90 1.2 NE 7 9 4 5 1010.0 - 6.6
24/02:00am 24.8 28.3 22.9 89 1.3 NE 9 15 5 8 1009.9 - 6.6
24/01:30am 24.5 28.7 23.1 92 1.0 NNE 6 9 3 5 1010.4 - 6.6
24/01:00am 24.6 28.7 23.2 92 1.0 ESE 7 11 4 6 1010.8 - 6.6
24/12:30am 24.7 28.7 23.1 91 1.1 ESE 7 13 4 7 1010.8 - 6.6
24/12:00am 24.6 28.7 23.2 92 1.0 SE 7 9 4 5 1010.6 1008.6 6.6
 
Date/Time
EST
Temp
°C
App
Temp
°C
Dew
Point
°C
Rel
Hum
%
Delta-T
°C
Wind Press
QNH
hPa
Press
MSL
hPa
Rain since
9am
mm
Dir  Spd
km/h
Gust
km/h
Spd
kts
Gust
kts
23/11:30pm 24.4 28.2 22.8 91 1.1 SSE 7 13 4 7 1011.0 - 6.6
23/11:00pm 24.2 27.9 22.6 91 1.1 SSE 7 11 4 6 1011.0 - 6.6
23/10:30pm 24.4 28.0 23.0 92 1.0 E 9 17 5 9 1011.0 - 6.6
23/10:00pm 24.5 27.6 22.9 91 1.1 NE 11 15 6 8 1010.8 - 6.6
23/09:30pm 24.5 28.1 22.4 88 1.4 S 7 11 4 6 1010.8 - 6.6
23/09:00pm 27.2 29.4 20.3 66 4.6 SSE 9 19 5 10 1010.7 1008.7 0.0
23/08:30pm 27.5 28.5 20.3 65 4.8 SW 15 19 8 10 1010.5 - 0.0
23/08:00pm 28.2 30.7 21.0 65 4.8 SW 9 17 5 9 1010.1 - 0.0
23/07:30pm 29.2 31.3 20.9 61 5.6 SE 11 19 6 10 1009.7 - 0.0
23/07:00pm 29.2 32.6 22.7 68 4.5 SSW 9 15 5 8 1008.8 - 0.0
23/06:30pm 29.8 33.6 22.8 66 4.8 N 7 9 4 5 1008.2 - 0.0
23/06:00pm 30.9 34.2 21.9 58 6.2 N 7 9 4 5 1008.0 1005.9 0.0
23/05:30pm 33.1 37.1 22.8 54 7.2 W 6 9 3 5 1007.9 - 0.0
23/05:00pm 33.1 36.9 22.8 54 7.2 WNW 7 15 4 8 1007.4 - 0.0
23/04:30pm 32.6 35.1 22.4 55 7.0 WNW 13 20 7 11 1007.3 - 0.0
23/04:00pm 32.4 35.5 22.8 57 6.7 NNW 11 15 6 8 1007.7 - 0.0
23/03:30pm 31.6 34.7 22.9 60 6.0 NNE 11 15 6 8 1007.7 - 0.0
23/03:00pm 32.1 34.8 22.2 56 6.8 NE 11 19 6 10 1007.8 1005.7 0.0
23/02:30pm 32.3 34.8 22.4 56 6.8 E 13 17 7 9 1008.1 - 0.0
23/02:00pm 30.3 32.1 21.9 60 5.7 ESE 15 26 8 14 1008.6 - 0.0
23/01:30pm 33.4 35.8 20.9 48 8.5 SSW 9 13 5 7 1009.0 - 0.0
23/01:00pm 32.2 35.8 22.0 55 7.0 SW 6 9 3 5 1009.4 - 0.0
23/12:30pm 32.0 35.6 22.1 55 6.8 W 6 9 3 5 1010.1 - 0.0
23/12:00pm 32.4 36.4 22.8 57 6.7 ENE 6 13 3 7 1010.6 1008.6 0.0
23/11:30am 31.5 34.5 21.9 56 6.6 N 9 17 5 9 1011.2 - 0.0
23/11:00am 31.2 35.3 23.3 63 5.5 NE 7 15 4 8 1011.6 - 0.0
23/10:30am 30.3 34.2 23.0 65 5.1 ENE 7 15 4 8 1011.8 - 0.0
23/10:00am 30.1 34.7 23.8 69 4.4 SE 6 9 3 5 1011.9 - 0.0
23/09:30am 29.0 33.4 23.4 72 3.9 NNW 6 7 3 4 1012.0 - 0.0
23/09:00am 27.8 32.5 23.4 77 3.0 W 4 9 2 5 1011.9 1009.9 0.0
23/08:30am 27.3 31.9 23.1 78 2.9 NE 4 7 2 4 1011.8 - 0.0
23/08:00am 26.0 29.4 22.7 82 2.3 NNE 9 13 5 7 1011.6 - 0.0
23/07:30am 24.7 29.2 23.7 94 0.7 E 6 9 3 5 1011.5 - 0.0
23/07:00am 22.7 27.6 22.4 98 0.2 CALM 0 0 0 0 1011.2 - 0.0
23/06:30am 22.5 26.2 22.2 98 0.2 SSE 6 7 3 4 1011.0 - 0.0
23/06:00am 22.7 26.3 22.4 98 0.2 SE 7 7 4 4 1010.5 1008.5 0.0
23/05:30am 22.5 26.1 22.0 97 0.3 NE 6 7 3 4 1010.1 - 0.0
23/05:00am 22.8 27.7 22.3 97 0.3 CALM 0 6 0 3 1009.8 - 0.0
23/04:30am 23.1 28.2 22.6 97 0.3 CALM 0 6 0 3 1009.6 - 0.0
23/04:00am 22.9 27.7 22.2 96 0.5 CALM 0 0 0 0 1009.5 - 0.0
23/03:30am 23.1 28.2 22.6 97 0.3 CALM 0 0 0 0 1009.7 - 0.0
23/03:00am 23.1 28.2 22.6 97 0.3 CALM 0 0 0 0 1010.1 1008.1 0.0
23/02:30am 23.0 27.9 22.3 96 0.5 CALM 0 0 0 0 1010.4 - 0.0
23/02:00am 23.3 28.3 22.5 95 0.5 CALM 0 0 0 0 1010.5 - 0.0
23/01:30am 23.6 27.6 22.8 95 0.5 E 6 7 3 4 1010.7 - 0.0
23/01:00am 23.8 28.6 22.8 94 0.7 ESE 2 7 1 4 1010.8 - 0.0
23/12:30am 23.8 28.9 22.6 93 0.8 CALM 0 0 0 0 1011.0 - 0.0
23/12:00am 24.0 29.1 22.6 92 1.0 CALM 0 0 0 0 1010.8 1008.8 0.0
 
Date/Time
EST
Temp
°C
App
Temp
°C
Dew
Point
°C
Rel
Hum
%
Delta-T
°C
Wind Press
QNH
hPa
Press
MSL
hPa
Rain since
9am
mm
Dir  Spd
km/h
Gust
km/h
Spd
kts
Gust
kts
22/11:30pm 24.4 29.7 23.0 92 1.0 CALM 0 0 0 0 1010.7 - 0.0
22/11:00pm 24.2 29.2 22.5 90 1.2 CALM 0 0 0 0 1011.0 - 0.0
22/10:30pm 24.7 29.9 22.8 89 1.3 CALM 0 0 0 0 1011.1 - 0.0
22/10:00pm 24.7 29.9 22.8 89 1.3 CALM 0 0 0 0 1010.8 - 0.0
22/09:30pm 25.2 30.2 22.5 85 1.8 CALM 0 0 0 0 1010.6 - 0.0
22/09:00pm 25.1 29.6 22.2 84 2.0 E 2 7 1 4 1010.3 1008.3 0.0
22/08:30pm 25.2 29.5 21.9 82 2.2 SE 2 6 1 3 1010.1 - 0.0
22/08:00pm 25.5 29.2 22.2 82 2.2 ESE 6 7 3 4 1009.7 - 0.0
22/07:30pm 25.5 30.3 22.2 82 2.2 CALM 0 0 0 0 1009.4 - 0.0
22/07:00pm 25.6 30.3 21.9 80 2.5 CALM 0 0 0 0 1008.8 - 0.0
22/06:30pm 26.2 29.6 21.6 76 3.1 WNW 6 9 3 5 1008.9 - 0.0
22/06:00pm 26.5 30.3 21.0 72 3.7 ESE 2 7 1 4 1008.8 1006.8 0.0
22/05:30pm 26.7 26.6 20.8 70 3.9 E 22 37 12 20 1008.7 - 0.0
22/05:18pm 27.5 27.1 20.1 64 4.9 SE 22 35 12 19 1008.8 - 0.0
22/05:00pm 32.5 35.5 22.0 54 7.2 W 9 13 5 7 1008.0 - 0.0
22/04:30pm 32.7 34.5 22.5 55 7.1 W 17 20 9 11 1007.6 - 0.0
22/04:00pm 32.8 33.6 20.7 49 8.2 WSW 17 22 9 12 1007.8 - 0.0
22/03:30pm 32.4 33.2 21.3 52 7.6 WSW 19 22 10 12 1007.9 - 0.0
22/03:00pm 33.2 35.3 21.0 48 8.3 S 11 19 6 10 1008.3 1006.3 0.0
22/02:30pm 33.1 34.9 20.3 47 8.6 SW 11 24 6 13 1008.4 - 0.0
22/02:00pm 32.8 35.5 21.3 50 7.8 SW 9 15 5 8 1009.1 - 0.0
22/01:30pm 31.9 35.0 22.9 59 6.2 WSW 11 17 6 9 1009.8 - 0.0
22/01:00pm 31.0 34.7 22.6 61 5.8 W 7 15 4 8 1010.6 - 0.0
22/12:30pm 30.9 34.2 22.5 61 5.8 WSW 9 13 5 7 1011.3 - 0.0
22/12:00pm 30.2 33.9 22.6 63 5.2 NNW 7 11 4 6 1011.7 1009.7 0.0
22/11:30am 29.3 32.8 23.5 71 4.0 W 11 17 6 9 1012.0 - 0.0
22/11:00am 28.8 31.3 23.2 71 3.9 W 15 20 8 11 1012.4 - 0.0
22/10:30am 29.4 33.5 24.0 72 3.8 WSW 9 15 5 8 1012.7 - 0.0
22/10:00am 28.3 31.9 23.0 73 3.7 SW 9 15 5 8 1012.8 - 0.0
22/09:34am 27.5 31.3 23.5 79 2.8 WSW 9 13 5 7 1013.0 - 0.0
22/09:30am 27.2 30.8 23.7 81 2.4 WSW 11 13 6 7 1013.0 - 0.0
22/09:20am 27.2 31.2 23.7 81 2.4 W 9 13 5 7 1013.0 - 0.0
22/09:00am 27.3 31.7 23.5 80 2.6 W 6 9 3 5 1013.1 1011.1 0.0
22/08:30am 26.2 31.3 23.3 84 2.0 WNW 2 7 1 4 1012.9 - 0.0
22/08:00am 25.7 31.2 23.4 87 1.6 CALM 0 0 0 0 1012.6 - 0.0
22/07:30am 25.1 30.5 23.2 89 1.3 CALM 0 0 0 0 1012.3 - 0.0
22/07:00am 24.6 29.9 23.0 91 1.1 CALM 0 0 0 0 1011.9 - 0.0
22/06:30am 24.4 29.6 22.8 91 1.1 CALM 0 0 0 0 1011.5 - 0.0
22/06:00am 24.1 29.4 23.1 94 0.7 CALM 0 4 0 2 1011.5 1009.5 0.0
22/05:30am 23.4 28.2 22.2 93 0.8 CALM 0 0 0 0 1011.1 - 0.0
22/05:27am 23.3 28.1 22.1 93 0.8 CALM 0 0 0 0 1011.0 - 0.0
22/05:00am 23.6 28.3 22.0 91 1.1 CALM 0 0 0 0 1010.7 - 0.0
22/04:30am 24.1 27.8 22.2 89 1.3 NNE 6 9 3 5 1010.6 - 0.0
22/04:00am 24.3 27.8 22.2 88 1.4 ENE 7 9 4 5 1010.4 - 0.0
22/03:30am 24.7 27.4 22.2 86 1.7 NNE 11 13 6 7 1010.3 - 0.0
22/03:00am 25.1 27.8 22.2 84 2.0 N 11 17 6 9 1010.4 1008.4 0.0
22/02:30am 25.0 27.1 21.7 82 2.2 NNE 13 17 7 9 1010.4 - 0.0
22/02:00am 24.9 27.9 22.0 84 2.0 NE 9 13 5 7 1010.5 - 0.0
22/01:30am 24.6 28.3 22.5 88 1.4 N 7 11 4 6 1010.7 - 0.0
22/01:00am 23.8 28.6 22.1 90 1.1 CALM 0 0 0 0 1011.1 - 0.0
22/12:30am 24.2 29.1 22.3 89 1.3 CALM 0 0 0 0 1011.4 - 0.0
22/12:00am 24.7 29.0 22.6 88 1.4 SE 4 7 2 4 1011.9 1009.9 0.0
 
Date/Time
EST
Temp
°C
App
Temp
°C
Dew
Point
°C
Rel
Hum
%
Delta-T
°C
Wind Press
QNH
hPa
Press
MSL
hPa
Rain since
9am
mm
Dir  Spd
km/h
Gust
km/h
Spd
kts
Gust
kts
21/11:30pm 24.9 29.8 22.4 86 1.7 CALM 0 0 0 0 1011.8 - 0.0
21/11:00pm 24.7 28.3 22.0 85 1.8 SSE 6 7 3 4 1011.7 - 0.0
21/10:30pm 24.9 29.8 22.4 86 1.7 CALM 0 0 0 0 1011.8 - 0.0
21/10:00pm 25.1 29.8 22.0 83 2.1 CALM 0 0 0 0 1011.6 - 0.0
21/09:30pm 25.8 30.7 22.3 81 2.4 CALM 0 0 0 0 1011.1 - 0.0
21/09:00pm 25.9 30.0 22.2 80 2.5 SE 4 6 2 3 1011.1 1009.0 0.0
21/08:30pm 26.2 30.7 21.6 76 3.1 CALM 0 0 0 0 1011.0 - 0.0
21/08:00pm 27.8 31.0 21.3 67 4.4 E 6 9 3 5 1010.4 - 0.0
21/07:30pm 28.7 31.5 21.5 65 4.9 ESE 9 13 5 7 1010.1 - 0.0
21/07:00pm 29.5 32.9 21.7 63 5.3 S 6 9 3 5 1009.6 - 0.0
21/06:30pm 30.4 33.2 21.5 59 6.0 S 9 13 5 7 1009.1 - 0.0
21/06:00pm 31.5 33.8 21.4 55 6.9 SW 11 17 6 9 1008.6 1006.6 0.0
21/05:30pm 32.6 35.4 20.5 49 8.2 S 6 11 3 6 1008.3 - 0.0
21/05:00pm 33.4 35.9 20.2 46 8.9 SW 7 11 4 6 1008.4 - 0.0
21/04:30pm 32.5 34.0 19.7 46 8.5 SSE 11 17 6 9 1008.2 - 0.0
21/04:00pm 32.8 35.1 20.7 49 8.2 SSW 9 15 5 8 1008.3 - 0.0
21/03:30pm 33.1 36.2 20.3 47 8.6 S 4 11 2 6 1008.4 - 0.0
21/03:00pm 32.6 35.2 20.5 49 8.2 WSW 7 15 4 8 1008.8 1006.8 0.0
21/02:30pm 32.3 34.5 21.2 52 7.5 SW 11 15 6 8 1009.3 - 0.0
21/02:00pm 32.1 34.1 21.6 53 7.2 WSW 13 22 7 12 1009.8 - 0.0
21/01:30pm 31.4 33.6 20.4 52 7.4 WSW 9 13 5 7 1010.3 - 0.0
21/01:00pm 31.4 34.7 21.8 56 6.6 SSE 7 13 4 7 1010.8 - 0.0
21/12:30pm 29.9 33.1 22.3 63 5.2 SW 9 15 5 8 1011.5 - 0.0

Other Formats:

Comma delimited format used in spreadsheet applications
http://www.bom.gov.au/fwo/IDQ60801/IDQ60801.94274.axf

JavaScript Object Notation format (JSON) in row-major order
http://www.bom.gov.au/fwo/IDQ60801/IDQ60801.94274.json